Time;durP1;ratioP1;P1;durP2;ratioP2;P2;SDS_P1;SDS_P2;PMS_P1;PMS_P2;Temp;Humidity;BMP_temperature;BMP_pressure;BME280_temperature;BME280_humidity;BME280_pressure;Samples;Min_cycle;Max_cycle;Signal;HPM_P1;HPM_P2
2022/03/12 00:02:16;;;;;;;6.15;3.95;;;;;;;;;;5074905;28;20025;-68
2022/03/12 00:04:42;;;;;;;15.75;3.88;;;;;;;;;;5074015;28;20032;-69
2022/03/12 00:07:11;;;;;;;6.95;3.75;;;;;;;;;;5074870;28;20449;-68
2022/03/12 00:09:37;;;;;;;7.75;3.78;;;;;;;;;;5074858;28;20118;-67
2022/03/12 00:12:04;;;;;;;6.82;3.60;;;;;;;;;;5074581;28;20098;-68
2022/03/12 00:14:32;;;;;;;9.43;3.92;;;;;;;;;;5074365;28;20502;-70
2022/03/12 00:16:59;;;;;;;9.70;3.55;;;;;;;;;;5074977;28;20024;-67
2022/03/12 00:19:25;;;;;;;9.30;3.70;;;;;;;;;;5072180;28;20036;-67
2022/03/12 00:21:51;;;;;;;12.57;3.42;;;;;;;;;;5073109;28;20036;-68
2022/03/12 00:24:18;;;;;;;10.18;3.50;;;;;;;;;;5074590;28;20038;-66
2022/03/12 00:26:45;;;;;;;11.55;3.67;;;;;;;;;;5074426;28;20463;-67
2022/03/12 00:29:15;;;;;;;9.27;3.33;;;;;;;;;;5074449;28;20027;-69
2022/03/12 00:31:45;;;;;;;5.25;3.42;;;;;;;;;;5056238;28;20047;-69
2022/03/12 00:34:11;;;;;;;7.53;3.90;;;;;;;;;;5074347;28;20028;-67
2022/03/12 00:36:37;;;;;;;7.93;3.63;;;;;;;;;;5074284;28;20025;-67
2022/03/12 00:39:03;;;;;;;7.55;3.95;;;;;;;;;;5074140;28;20035;-69
2022/03/12 00:41:29;;;;;;;9.75;3.90;;;;;;;;;;5056094;28;20090;-67
2022/03/12 00:43:55;;;;;;;14.23;4.22;;;;;;;;;;5056129;28;20708;-64
2022/03/12 00:46:22;;;;;;;9.00;4.05;;;;;;;;;;5074251;28;20039;-67
2022/03/12 00:48:48;;;;;;;6.15;3.60;;;;;;;;;;5073972;28;20111;-67
2022/03/12 00:51:14;;;;;;;12.73;3.47;;;;;;;;;;5072506;28;20033;-67
2022/03/12 00:53:41;;;;;;;12.85;4.43;;;;;;;;;;5045794;28;20086;-67
2022/03/12 00:56:07;;;;;;;6.68;3.50;;;;;;;;;;5073866;28;20033;-69
2022/03/12 00:58:35;;;;;;;13.13;3.67;;;;;;;;;;5073900;28;20020;-66
2022/03/12 01:01:02;;;;;;;10.70;4.03;;;;;;;;;;5055933;28;20070;-68
2022/03/12 01:03:28;;;;;;;13.32;3.78;;;;;;;;;;5073907;28;20498;-68
2022/03/12 01:05:57;;;;;;;9.77;3.35;;;;;;;;;;5055839;28;20024;-68
2022/03/12 01:08:23;;;;;;;8.27;3.42;;;;;;;;;;5073740;28;20070;-68
2022/03/12 01:10:50;;;;;;;4.53;3.13;;;;;;;;;;5073367;28;20062;-68
2022/03/12 01:13:16;;;;;;;8.43;3.20;;;;;;;;;;5073267;28;20036;-70
2022/03/12 01:15:42;;;;;;;7.05;3.92;;;;;;;;;;5055531;28;20020;-68
2022/03/12 01:18:17;;;;;;;8.23;3.20;;;;;;;;;;5067372;28;20502;-68
2022/03/12 01:20:43;;;;;;;13.15;3.00;;;;;;;;;;5053646;28;20610;-68
2022/03/12 01:23:12;;;;;;;12.73;3.38;;;;;;;;;;5055569;28;20086;-68
2022/03/12 01:25:38;;;;;;;6.40;3.15;;;;;;;;;;5073140;28;20021;-67
2022/03/12 01:28:04;;;;;;;6.28;3.60;;;;;;;;;;5073238;28;20031;-67
2022/03/12 01:30:31;;;;;;;7.25;3.65;;;;;;;;;;5073300;28;20103;-67
2022/03/12 01:32:57;;;;;;;17.55;3.95;;;;;;;;;;5072971;28;20043;-67
2022/03/12 01:35:24;;;;;;;8.23;3.60;;;;;;;;;;5072160;28;20024;-69
2022/03/12 01:37:50;;;;;;;13.68;3.63;;;;;;;;;;5072961;28;20031;-66
2022/03/12 01:40:16;;;;;;;7.88;2.88;;;;;;;;;;5073146;28;20029;-66
2022/03/12 01:42:43;;;;;;;11.18;3.30;;;;;;;;;;5072927;28;20028;-67
2022/03/12 01:45:10;;;;;;;8.25;3.67;;;;;;;;;;5072882;28;20025;-69
2022/03/12 01:47:36;;;;;;;15.32;3.50;;;;;;;;;;5073097;28;20376;-69
2022/03/12 01:50:03;;;;;;;8.90;3.28;;;;;;;;;;5072828;28;20545;-68
2022/03/12 01:52:31;;;;;;;8.35;3.15;;;;;;;;;;5072675;28;20123;-68
2022/03/12 01:54:57;;;;;;;9.57;3.05;;;;;;;;;;5073068;28;20117;-70
2022/03/12 01:57:23;;;;;;;6.63;3.15;;;;;;;;;;5072893;28;20013;-70
2022/03/12 01:59:51;;;;;;;8.23;3.53;;;;;;;;;;5055037;28;20032;-70
2022/03/12 02:02:17;;;;;;;11.68;3.00;;;;;;;;;;5072520;28;20501;-70
2022/03/12 02:04:52;;;;;;;10.88;3.10;;;;;;;;;;5072838;28;20070;-70
2022/03/12 02:07:22;;;;;;;7.15;3.10;;;;;;;;;;5071637;28;20031;-69
2022/03/12 02:09:49;;;;;;;14.25;3.35;;;;;;;;;;5072965;28;20484;-70
2022/03/12 02:12:15;;;;;;;6.68;3.30;;;;;;;;;;5054345;28;20028;-67
2022/03/12 02:14:41;;;;;;;9.35;2.85;;;;;;;;;;5072180;28;20024;-68
2022/03/12 02:17:09;;;;;;;15.30;3.50;;;;;;;;;;5072599;28;20032;-68
2022/03/12 02:19:35;;;;;;;7.57;3.30;;;;;;;;;;5071786;28;20452;-67
2022/03/12 02:22:04;;;;;;;5.93;3.30;;;;;;;;;;5072032;28;20052;-67
2022/03/12 02:24:31;;;;;;;14.30;3.00;;;;;;;;;;5072642;28;20102;-70
2022/03/12 02:26:58;;;;;;;6.55;3.08;;;;;;;;;;5072374;28;20105;-67
2022/03/12 02:29:25;;;;;;;5.18;2.90;;;;;;;;;;5072328;28;20112;-68
2022/03/12 02:31:53;;;;;;;7.68;3.15;;;;;;;;;;5071880;28;20033;-67
2022/03/12 02:34:23;;;;;;;8.50;3.17;;;;;;;;;;5072294;28;20032;-68
2022/03/12 02:36:53;;;;;;;5.63;2.97;;;;;;;;;;5071500;28;20025;-63
2022/03/12 02:39:20;;;;;;;3.47;2.75;;;;;;;;;;5067376;28;20025;-69
2022/03/12 02:41:47;;;;;;;5.28;2.95;;;;;;;;;;5054009;28;20418;-68
2022/03/12 02:44:17;;;;;;;6.13;2.75;;;;;;;;;;5072194;28;20769;-68
2022/03/12 02:46:43;;;;;;;7.97;2.95;;;;;;;;;;5053707;28;20503;-69
2022/03/12 02:49:09;;;;;;;3.50;2.95;;;;;;;;;;5072148;28;20082;-69
2022/03/12 02:51:35;;;;;;;8.52;2.88;;;;;;;;;;5071730;28;20021;-68
2022/03/12 02:54:01;;;;;;;4.55;2.63;;;;;;;;;;5071039;28;20062;-68
2022/03/12 02:56:29;;;;;;;8.38;2.88;;;;;;;;;;5071914;28;20043;-68
2022/03/12 02:58:55;;;;;;;5.70;3.22;;;;;;;;;;5072386;28;20033;-68
2022/03/12 03:01:26;;;;;;;6.75;2.90;;;;;;;;;;5071630;28;20070;-67
2022/03/12 03:03:53;;;;;;;5.55;2.83;;;;;;;;;;5072156;28;20013;-68
2022/03/12 03:06:20;;;;;;;6.10;3.13;;;;;;;;;;5071900;28;20766;-69
2022/03/12 03:08:46;;;;;;;4.38;3.00;;;;;;;;;;5054092;28;20028;-68
2022/03/12 03:11:15;;;;;;;3.08;2.63;;;;;;;;;;5067899;28;20085;-67
2022/03/12 03:13:44;;;;;;;4.30;2.55;;;;;;;;;;5071281;28;20549;-67
2022/03/12 03:16:10;;;;;;;4.13;2.85;;;;;;;;;;5071805;28;20033;-68
2022/03/12 03:18:39;;;;;;;8.68;3.00;;;;;;;;;;5071232;28;20028;-67
2022/03/12 03:21:08;;;;;;;8.98;2.40;;;;;;;;;;5071555;28;20512;-69
2022/03/12 03:23:34;;;;;;;5.07;2.92;;;;;;;;;;5071763;28;20064;-68
2022/03/12 03:26:00;;;;;;;6.20;3.08;;;;;;;;;;5071683;28;20361;-68
2022/03/12 03:28:26;;;;;;;5.32;2.88;;;;;;;;;;5071651;28;20024;-68
2022/03/12 03:30:52;;;;;;;6.82;2.90;;;;;;;;;;5053552;28;20017;-66
2022/03/12 03:33:19;;;;;;;6.00;2.60;;;;;;;;;;5071923;28;20049;-68
2022/03/12 03:35:45;;;;;;;6.95;2.40;;;;;;;;;;5071645;28;20460;-67
2022/03/12 03:38:12;;;;;;;5.53;2.58;;;;;;;;;;5067040;28;20029;-68
2022/03/12 03:40:39;;;;;;;5.88;2.30;;;;;;;;;;5069429;28;20025;-69
2022/03/12 03:43:09;;;;;;;3.17;2.63;;;;;;;;;;5071473;28;20047;-69
2022/03/12 03:45:36;;;;;;;6.18;2.42;;;;;;;;;;5071643;28;20027;-69
2022/03/12 03:48:02;;;;;;;6.45;2.83;;;;;;;;;;5071530;28;20036;-69
2022/03/12 03:50:28;;;;;;;7.97;2.75;;;;;;;;;;5071369;28;20471;-69
2022/03/12 03:52:58;;;;;;;5.45;2.58;;;;;;;;;;5053209;28;20472;-67
2022/03/12 03:55:28;;;;;;;9.68;2.80;;;;;;;;;;5071584;28;20021;-68
2022/03/12 03:57:54;;;;;;;4.38;2.50;;;;;;;;;;5072813;28;20028;-67
2022/03/12 04:00:24;;;;;;;5.25;2.45;;;;;;;;;;5075129;28;20024;-68
2022/03/12 04:03:02;;;;;;;10.10;2.78;;;;;;;;;;5074733;28;20029;-68
2022/03/12 04:05:34;;;;;;;7.22;2.70;;;;;;;;;;5074985;28;20037;-69
2022/03/12 04:08:00;;;;;;;4.15;2.75;;;;;;;;;;5071942;28;20149;-69
2022/03/12 04:10:27;;;;;;;7.03;2.45;;;;;;;;;;5070986;28;20020;-68
2022/03/12 04:12:53;;;;;;;4.65;2.40;;;;;;;;;;5074695;28;20033;-68
2022/03/12 04:15:20;;;;;;;5.18;2.50;;;;;;;;;;5074439;28;20063;-69
2022/03/12 04:17:46;;;;;;;3.58;2.80;;;;;;;;;;5074768;28;20025;-67
2022/03/12 04:20:13;;;;;;;5.95;2.70;;;;;;;;;;5074358;28;20023;-67
2022/03/12 04:22:39;;;;;;;5.47;2.80;;;;;;;;;;5074208;28;20131;-67
2022/03/12 04:25:06;;;;;;;3.88;2.80;;;;;;;;;;5074716;28;20111;-66
2022/03/12 04:27:38;;;;;;;3.08;2.50;;;;;;;;;;5074282;28;20103;-65
2022/03/12 04:30:05;;;;;;;6.93;2.40;;;;;;;;;;5074377;28;20104;-67
2022/03/12 04:32:31;;;;;;;5.03;2.88;;;;;;;;;;5074172;28;20040;-67
2022/03/12 04:34:57;;;;;;;7.85;2.72;;;;;;;;;;5074286;28;20777;-68
2022/03/12 04:37:23;;;;;;;6.50;2.53;;;;;;;;;;5074152;28;20043;-68
2022/03/12 04:39:49;;;;;;;3.83;2.63;;;;;;;;;;5055624;28;20094;-69
2022/03/12 04:42:21;;;;;;;3.28;2.42;;;;;;;;;;5074185;28;20054;-66
2022/03/12 04:44:48;;;;;;;3.03;2.38;;;;;;;;;;5074100;28;20029;-65
2022/03/12 04:47:17;;;;;;;9.35;2.85;;;;;;;;;;5074109;28;20021;-68
2022/03/12 04:49:43;;;;;;;7.90;2.63;;;;;;;;;;5074042;28;20071;-67
2022/03/12 04:52:11;;;;;;;7.32;2.50;;;;;;;;;;5073624;28;20036;-69
2022/03/12 04:54:37;;;;;;;4.88;2.20;;;;;;;;;;5055035;28;20458;-67
2022/03/12 04:57:03;;;;;;;3.60;2.30;;;;;;;;;;5073824;28;20112;-69
2022/03/12 04:59:29;;;;;;;3.45;2.75;;;;;;;;;;5073949;28;20035;-68
2022/03/12 05:01:57;;;;;;;3.35;2.72;;;;;;;;;;5074044;28;20021;-77
2022/03/12 05:04:23;;;;;;;10.25;2.90;;;;;;;;;;5073955;28;20024;-68
2022/03/12 05:06:49;;;;;;;6.40;2.80;;;;;;;;;;5073764;28;20097;-65
2022/03/12 05:09:15;;;;;;;6.13;2.63;;;;;;;;;;5073330;28;20060;-69
2022/03/12 05:11:41;;;;;;;7.63;2.45;;;;;;;;;;5073793;28;20039;-69
2022/03/12 05:14:10;;;;;;;4.55;2.38;;;;;;;;;;5072974;28;20399;-68
2022/03/12 05:16:38;;;;;;;5.60;2.92;;;;;;;;;;5073626;28;20016;-68
2022/03/12 05:19:06;;;;;;;3.88;2.33;;;;;;;;;;5073339;28;20408;-68
2022/03/12 05:21:32;;;;;;;7.88;2.60;;;;;;;;;;5073148;28;20033;-67
2022/03/12 05:23:58;;;;;;;2.85;2.20;;;;;;;;;;5073337;28;20020;-67
2022/03/12 05:26:24;;;;;;;3.47;2.30;;;;;;;;;;5074391;28;20037;-67
2022/03/12 05:28:50;;;;;;;4.13;2.13;;;;;;;;;;5073317;28;20021;-67
2022/03/12 05:31:17;;;;;;;3.25;2.30;;;;;;;;;;5055158;28;20040;-67
2022/03/12 05:33:46;;;;;;;4.95;2.13;;;;;;;;;;5068575;28;20082;-67
2022/03/12 05:36:12;;;;;;;2.95;2.30;;;;;;;;;;5072267;28;20016;-67
2022/03/12 05:38:39;;;;;;;19.70;2.83;;;;;;;;;;5072328;28;20070;-72
2022/03/12 05:41:09;;;;;;;8.27;2.65;;;;;;;;;;5073926;28;20487;-72
2022/03/12 05:43:44;;;;;;;11.90;2.50;;;;;;;;;;5073692;28;20028;-73
2022/03/12 05:46:14;;;;;;;6.05;2.40;;;;;;;;;;5073922;28;20035;-72
2022/03/12 05:48:40;;;;;;;17.67;2.80;;;;;;;;;;5074198;28;20047;-72
2022/03/12 05:51:09;;;;;;;10.75;2.15;;;;;;;;;;5073579;28;20024;-74
2022/03/12 05:53:36;;;;;;;23.10;2.90;;;;;;;;;;5055569;28;20131;-71
2022/03/12 05:56:02;;;;;;;12.65;2.53;;;;;;;;;;5072867;28;20032;-74
2022/03/12 05:58:28;;;;;;;8.20;2.42;;;;;;;;;;5068833;28;20036;-77
2022/03/12 06:00:55;;;;;;;18.00;2.42;;;;;;;;;;5070053;28;20032;-76
2022/03/12 06:03:24;;;;;;;25.73;2.22;;;;;;;;;;5072758;28;20090;-72
2022/03/12 06:05:56;;;;;;;19.20;2.20;;;;;;;;;;5072451;28;20048;-73
2022/03/12 06:08:24;;;;;;;24.92;2.42;;;;;;;;;;5072738;28;20062;-72
2022/03/12 06:10:52;;;;;;;16.52;2.25;;;;;;;;;;5073046;28;20038;-73
2022/03/12 06:13:18;;;;;;;10.95;2.20;;;;;;;;;;5070269;28;20032;-73
2022/03/12 06:15:50;;;;;;;8.50;2.13;;;;;;;;;;5066860;28;20040;-71
2022/03/12 06:18:16;;;;;;;15.65;2.10;;;;;;;;;;5053325;28;20039;-72
2022/03/12 06:20:42;;;;;;;6.78;1.95;;;;;;;;;;5071905;28;20111;-75
2022/03/12 06:23:09;;;;;;;5.03;1.90;;;;;;;;;;5073078;28;20091;-73
2022/03/12 06:25:35;;;;;;;41.20;2.38;;;;;;;;;;5072939;28;20065;-72
2022/03/12 06:28:03;;;;;;;11.30;1.73;;;;;;;;;;5072411;28;20060;-69
2022/03/12 06:30:29;;;;;;;7.63;1.70;;;;;;;;;;5072259;28;20539;-72
2022/03/12 06:32:56;;;;;;;9.27;1.73;;;;;;;;;;5072435;28;20033;-71
2022/03/12 06:35:23;;;;;;;6.90;1.70;;;;;;;;;;5072504;28;20020;-71
2022/03/12 06:37:49;;;;;;;7.95;1.70;;;;;;;;;;5054907;28;20032;-72
2022/03/12 06:40:16;;;;;;;3.50;1.60;;;;;;;;;;5072974;28;20013;-73
2022/03/12 06:42:46;;;;;;;4.32;1.90;;;;;;;;;;5071921;28;20025;-74
2022/03/12 06:45:15;;;;;;;5.55;1.85;;;;;;;;;;5052880;28;20032;-70
2022/03/12 06:47:42;;;;;;;7.75;1.90;;;;;;;;;;5072939;28;20025;-74
2022/03/12 06:50:10;;;;;;;5.30;1.60;;;;;;;;;;5072712;28;20384;-74
2022/03/12 06:52:37;;;;;;;5.20;1.73;;;;;;;;;;5061738;28;20020;-74
2022/03/12 06:55:04;;;;;;;4.25;1.63;;;;;;;;;;5072693;28;20024;-71
2022/03/12 06:57:30;;;;;;;10.27;1.70;;;;;;;;;;5072219;28;20485;-74
2022/03/12 06:59:56;;;;;;;2.55;1.40;;;;;;;;;;5047583;28;20060;-71
2022/03/12 07:02:22;;;;;;;2.45;1.40;;;;;;;;;;5072536;28;20036;-72
2022/03/12 07:04:48;;;;;;;3.72;1.63;;;;;;;;;;5072703;28;20548;-66
2022/03/12 07:07:14;;;;;;;6.35;1.48;;;;;;;;;;5072203;28;20017;-75
2022/03/12 07:09:41;;;;;;;5.85;1.40;;;;;;;;;;5054368;28;20360;-75
2022/03/12 07:12:07;;;;;;;6.93;1.65;;;;;;;;;;5072440;28;20439;-74
2022/03/12 07:14:34;;;;;;;15.30;1.75;;;;;;;;;;5072000;28;20039;-74
2022/03/12 07:17:00;;;;;;;2.63;1.40;;;;;;;;;;5072986;28;20021;-73
2022/03/12 07:19:26;;;;;;;3.35;1.40;;;;;;;;;;5072128;28;20021;-75
2022/03/12 07:21:53;;;;;;;4.80;1.55;;;;;;;;;;5071846;28;20101;-75
2022/03/12 07:24:19;;;;;;;4.05;1.27;;;;;;;;;;5072812;28;20043;-74
2022/03/12 07:26:45;;;;;;;6.20;1.52;;;;;;;;;;5072664;28;20021;-74
2022/03/12 07:29:12;;;;;;;2.40;1.38;;;;;;;;;;5067130;28;20032;-75
2022/03/12 07:31:38;;;;;;;2.60;1.40;;;;;;;;;;5054843;28;20384;-71
2022/03/12 07:34:05;;;;;;;6.55;1.42;;;;;;;;;;5076357;28;20060;-66
2022/03/12 07:36:31;;;;;;;3.35;1.30;;;;;;;;;;5076387;28;20033;-72
2022/03/12 07:39:03;;;;;;;1.80;1.30;;;;;;;;;;5076713;28;20035;-76
2022/03/12 07:41:30;;;;;;;8.07;1.30;;;;;;;;;;5076829;28;20017;-75
2022/03/12 07:43:56;;;;;;;6.25;1.50;;;;;;;;;;5076136;28;20114;-72
2022/03/12 07:46:22;;;;;;;2.58;1.13;;;;;;;;;;5076145;28;20062;-71
2022/03/12 07:48:48;;;;;;;8.55;1.67;;;;;;;;;;5076277;28;20211;-76
2022/03/12 07:51:14;;;;;;;6.55;1.75;;;;;;;;;;5058069;28;20379;-71
2022/03/12 07:53:40;;;;;;;9.93;1.67;;;;;;;;;;5057999;28;20464;-78
2022/03/12 07:56:07;;;;;;;3.90;1.60;;;;;;;;;;5075987;28;20059;-74
2022/03/12 07:58:33;;;;;;;5.13;1.40;;;;;;;;;;5050622;28;20047;-73
2022/03/12 08:00:59;;;;;;;6.57;1.27;;;;;;;;;;5065088;28;20021;-73
2022/03/12 08:03:26;;;;;;;10.35;1.65;;;;;;;;;;5075854;28;20372;-74
2022/03/12 08:05:52;;;;;;;3.75;1.40;;;;;;;;;;5075809;28;20032;-73
2022/03/12 08:08:18;;;;;;;5.72;1.40;;;;;;;;;;5059743;28;20028;-69
2022/03/12 08:13:30;;;;;;;10.85;1.90;;;;;;;;;;5063014;28;20087;-72
2022/03/12 08:15:57;;;;;;;20.27;2.00;;;;;;;;;;5074350;28;20033;-71
2022/03/12 08:18:23;;;;;;;9.75;2.05;;;;;;;;;;5052074;28;20029;-73
2022/03/12 08:20:50;;;;;;;12.27;1.55;;;;;;;;;;5055665;28;20147;-77
2022/03/12 08:23:16;;;;;;;14.88;2.30;;;;;;;;;;5075213;28;20013;-75
2022/03/12 08:25:42;;;;;;;8.13;2.10;;;;;;;;;;5073633;28;20040;-78
2022/03/12 08:28:13;;;;;;;10.55;2.30;;;;;;;;;;5069186;28;20038;-70
2022/03/12 08:30:39;;;;;;;7.10;2.35;;;;;;;;;;5075338;28;20457;-71
2022/03/12 08:33:05;;;;;;;13.35;2.92;;;;;;;;;;5075175;28;20033;-72
2022/03/12 08:35:31;;;;;;;9.75;2.55;;;;;;;;;;5074683;28;20498;-71
2022/03/12 08:37:57;;;;;;;10.70;2.60;;;;;;;;;;5075130;28;20487;-72
2022/03/12 08:40:25;;;;;;;4.65;2.20;;;;;;;;;;5075287;28;20024;-75
2022/03/12 08:42:52;;;;;;;9.25;2.58;;;;;;;;;;5074579;28;20376;-72
2022/03/12 08:45:18;;;;;;;10.15;2.40;;;;;;;;;;5075315;28;20052;-72
2022/03/12 08:47:45;;;;;;;6.63;2.55;;;;;;;;;;5075321;28;20419;-73
2022/03/12 08:50:11;;;;;;;7.75;2.10;;;;;;;;;;5058919;28;20024;-74
2022/03/12 08:52:38;;;;;;;10.55;2.53;;;;;;;;;;5072768;28;20028;-68
2022/03/12 08:55:04;;;;;;;10.73;2.60;;;;;;;;;;5058268;28;20569;-74
2022/03/12 08:57:30;;;;;;;16.92;2.67;;;;;;;;;;5058154;28;20074;-66
2022/03/12 08:59:57;;;;;;;21.20;2.70;;;;;;;;;;5072403;28;20060;-66
2022/03/12 09:02:23;;;;;;;20.75;3.28;;;;;;;;;;5054794;28;20063;-70
2022/03/12 09:04:49;;;;;;;19.67;2.28;;;;;;;;;;5073359;28;20028;-67
2022/03/12 09:07:15;;;;;;;13.07;2.38;;;;;;;;;;5073745;28;20028;-66
2022/03/12 09:09:41;;;;;;;19.77;2.33;;;;;;;;;;5073495;28;20031;-65
2022/03/12 09:12:08;;;;;;;8.07;2.05;;;;;;;;;;5073349;28;20115;-67
2022/03/12 09:14:35;;;;;;;11.13;2.10;;;;;;;;;;5073175;28;20029;-66
2022/03/12 09:17:02;;;;;;;9.73;2.08;;;;;;;;;;5072759;28;20480;-76
2022/03/12 09:19:28;;;;;;;8.98;1.90;;;;;;;;;;5073133;28;20099;-70
2022/03/12 09:21:56;;;;;;;6.05;1.70;;;;;;;;;;5054737;28;20060;-78
2022/03/12 09:24:22;;;;;;;8.32;1.90;;;;;;;;;;5072919;28;20025;-67
2022/03/12 09:26:48;;;;;;;5.82;1.83;;;;;;;;;;5073142;28;20031;-69
2022/03/12 09:29:15;;;;;;;5.90;1.55;;;;;;;;;;5073271;28;20029;-66
2022/03/12 09:31:41;;;;;;;4.75;1.50;;;;;;;;;;5072715;28;20107;-67
2022/03/12 09:34:07;;;;;;;10.85;1.95;;;;;;;;;;5071546;28;20068;-66
2022/03/12 09:36:35;;;;;;;4.68;1.42;;;;;;;;;;5072724;28;20024;-66
2022/03/12 09:39:03;;;;;;;7.20;2.03;;;;;;;;;;5068788;28;20119;-76
2022/03/12 09:41:29;;;;;;;4.82;1.25;;;;;;;;;;5071290;28;20033;-67
2022/03/12 09:43:56;;;;;;;7.38;1.60;;;;;;;;;;5072794;28;20078;-72
2022/03/12 09:46:22;;;;;;;6.82;1.50;;;;;;;;;;5072876;28;20053;-66
2022/03/12 09:48:48;;;;;;;3.33;1.40;;;;;;;;;;5072515;28;20063;-68
2022/03/12 09:51:14;;;;;;;3.60;1.40;;;;;;;;;;5072652;28;20134;-74
2022/03/12 09:53:40;;;;;;;7.38;1.48;;;;;;;;;;5073189;28;20082;-73
2022/03/12 09:56:06;;;;;;;7.38;1.42;;;;;;;;;;5073307;28;20111;-73
2022/03/12 09:58:32;;;;;;;22.25;2.53;;;;;;;;;;5073368;28;20111;-70
2022/03/12 10:00:58;;;;;;;15.73;1.88;;;;;;;;;;5070463;28;20043;-77
2022/03/12 10:03:24;;;;;;;8.80;1.60;;;;;;;;;;5073399;28;20056;-77
2022/03/12 10:05:50;;;;;;;17.25;2.28;;;;;;;;;;5053994;28;20503;-75
2022/03/12 10:08:16;;;;;;;16.30;2.10;;;;;;;;;;5072978;28;20025;-74
2022/03/12 10:10:43;;;;;;;21.42;2.20;;;;;;;;;;5073186;28;20459;-78
2022/03/12 10:13:10;;;;;;;23.10;2.15;;;;;;;;;;5074247;28;20033;-77
2022/03/12 10:15:37;;;;;;;14.57;1.90;;;;;;;;;;5057126;28;20024;-78
2022/03/12 10:18:03;;;;;;;16.00;2.00;;;;;;;;;;5073202;28;20078;-76
2022/03/12 10:20:30;;;;;;;12.90;1.88;;;;;;;;;;5055391;28;20035;-78
2022/03/12 10:22:56;;;;;;;7.18;1.60;;;;;;;;;;5072515;28;20029;-77
2022/03/12 10:25:24;;;;;;;11.95;1.85;;;;;;;;;;5054822;28;20618;-71
2022/03/12 10:27:50;;;;;;;17.90;2.35;;;;;;;;;;5072697;28;20029;-72
2022/03/12 10:30:16;;;;;;;18.38;3.05;;;;;;;;;;5067753;28;20023;-72
2022/03/12 10:32:49;;;;;;;20.90;2.70;;;;;;;;;;5070620;28;20058;-75
2022/03/12 10:35:18;;;;;;;14.45;1.90;;;;;;;;;;5071731;28;20028;-72
2022/03/12 10:37:44;;;;;;;17.17;2.45;;;;;;;;;;5054376;28;20025;-74
2022/03/12 10:40:12;;;;;;;17.17;2.83;;;;;;;;;;5072229;28;20024;-71
2022/03/12 10:42:46;;;;;;;13.38;2.40;;;;;;;;;;5071629;28;20027;-72
2022/03/12 10:45:13;;;;;;;8.40;2.08;;;;;;;;;;5069529;28;20029;-72
2022/03/12 10:47:45;;;;;;;11.68;2.40;;;;;;;;;;5056401;28;20033;-72
2022/03/12 10:50:34;;;;;;;11.68;2.80;;;;;;;;;;5071593;28;20384;-72
2022/03/12 10:53:05;;;;;;;9.70;2.05;;;;;;;;;;5053548;28;20036;-74
2022/03/12 10:55:33;;;;;;;6.10;2.17;;;;;;;;;;5062070;28;20094;-73
2022/03/12 10:58:08;;;;;;;12.95;2.80;;;;;;;;;;5071919;28;20020;-73
2022/03/12 11:01:00;;;;;;;10.35;2.40;;;;;;;;;;5069705;28;20048;-70
2022/03/12 11:03:29;;;;;;;8.48;2.10;;;;;;;;;;5068133;28;20117;-73
2022/03/12 11:05:56;;;;;;;8.63;2.00;;;;;;;;;;5072927;28;20043;-77
2022/03/12 11:08:28;;;;;;;5.20;1.90;;;;;;;;;;5055506;28;20076;-76
2022/03/12 11:10:57;;;;;;;9.00;2.22;;;;;;;;;;5075802;28;20020;-71
2022/03/12 11:13:29;;;;;;;6.45;2.00;;;;;;;;;;5058041;28;20400;-71
2022/03/12 11:16:05;;;;;;;4.57;2.00;;;;;;;;;;5075410;28;20075;-70
2022/03/12 11:18:31;;;;;;;10.65;2.10;;;;;;;;;;5065103;28;20036;-68
2022/03/12 11:20:58;;;;;;;8.02;1.90;;;;;;;;;;5066361;28;20070;-68
2022/03/12 11:23:27;;;;;;;7.50;1.80;;;;;;;;;;5073576;28;20439;-70
2022/03/12 11:26:04;;;;;;;7.43;1.80;;;;;;;;;;5059273;28;20043;-71
2022/03/12 11:28:31;;;;;;;11.77;2.00;;;;;;;;;;5057048;28;20597;-66
2022/03/12 11:30:57;;;;;;;6.65;1.80;;;;;;;;;;5075425;28;20526;-67
2022/03/12 11:33:26;;;;;;;7.47;1.85;;;;;;;;;;5075561;28;20032;-66
2022/03/12 11:36:00;;;;;;;7.50;1.90;;;;;;;;;;5056385;28;20376;-66
2022/03/12 11:38:27;;;;;;;11.55;1.92;;;;;;;;;;5074204;28;20037;-68
2022/03/12 11:41:04;;;;;;;6.55;1.60;;;;;;;;;;5072505;28;20045;-70
2022/03/12 11:43:31;;;;;;;8.25;1.50;;;;;;;;;;5057177;28;20037;-69
2022/03/12 11:46:03;;;;;;;3.83;1.45;;;;;;;;;;5075034;28;20024;-67
2022/03/12 11:48:31;;;;;;;8.10;1.90;;;;;;;;;;5067076;28;20024;-69
2022/03/12 11:50:57;;;;;;;5.05;1.63;;;;;;;;;;5073375;28;20016;-68
2022/03/12 11:53:23;;;;;;;4.50;1.58;;;;;;;;;;5066953;28;20353;-67
2022/03/12 11:55:51;;;;;;;3.45;1.80;;;;;;;;;;5072289;28;21943;-68
2022/03/12 11:58:17;;;;;;;6.05;1.80;;;;;;;;;;5074302;28;20099;-68
2022/03/12 12:00:48;;;;;;;5.32;1.40;;;;;;;;;;5057624;28;20388;-70
2022/03/12 12:03:15;;;;;;;4.35;1.38;;;;;;;;;;5054639;28;20040;-67
2022/03/12 12:05:43;;;;;;;2.70;1.20;;;;;;;;;;5054803;28;20048;-70
2022/03/12 12:08:11;;;;;;;6.85;1.60;;;;;;;;;;5054611;28;20025;-66
2022/03/12 12:10:41;;;;;;;6.43;1.45;;;;;;;;;;5054491;28;20055;-68
2022/03/12 12:13:08;;;;;;;5.10;1.77;;;;;;;;;;5053961;28;20021;-68
2022/03/12 12:15:36;;;;;;;2.97;1.60;;;;;;;;;;5066678;28;20044;-69
2022/03/12 12:18:07;;;;;;;6.75;1.77;;;;;;;;;;5052551;28;20031;-72
2022/03/12 12:20:33;;;;;;;3.22;1.17;;;;;;;;;;5071664;28;20032;-71
2022/03/12 12:23:01;;;;;;;3.50;1.35;;;;;;;;;;5057185;28;20177;-67
2022/03/12 12:25:30;;;;;;;7.40;1.30;;;;;;;;;;5063854;28;20040;-72
2022/03/12 12:27:56;;;;;;;5.65;1.67;;;;;;;;;;5070230;28;20025;-76
2022/03/12 12:30:25;;;;;;;3.30;1.35;;;;;;;;;;5040438;28;20033;-68
2022/03/12 12:32:52;;;;;;;8.55;1.40;;;;;;;;;;5056970;28;20032;-72
2022/03/12 12:35:18;;;;;;;8.73;1.55;;;;;;;;;;5056084;28;20027;-68
2022/03/12 12:37:44;;;;;;;4.85;1.40;;;;;;;;;;5074282;28;20024;-67
2022/03/12 12:40:32;;;;;;;4.22;1.67;;;;;;;;;;5074867;28;20036;-69
2022/03/12 12:43:02;;;;;;;3.92;1.50;;;;;;;;;;5074682;28;20107;-73
2022/03/12 12:45:30;;;;;;;5.50;1.60;;;;;;;;;;5074974;28;20040;-77
2022/03/12 12:48:17;;;;;;;5.63;1.48;;;;;;;;;;5075072;28;20388;-78
2022/03/12 12:51:02;;;;;;;6.10;1.65;;;;;;;;;;5047073;28;20041;-76
2022/03/12 12:53:31;;;;;;;11.90;1.90;;;;;;;;;;5065581;28;20056;-70
2022/03/12 12:56:17;;;;;;;4.32;1.73;;;;;;;;;;5069024;28;20464;-71
2022/03/12 12:58:52;;;;;;;5.82;2.03;;;;;;;;;;5073481;28;20025;-72
2022/03/12 13:01:20;;;;;;;4.40;1.45;;;;;;;;;;5060013;28;20083;-72
2022/03/12 13:03:47;;;;;;;6.32;1.50;;;;;;;;;;5073110;28;20021;-74
2022/03/12 13:06:13;;;;;;;4.10;1.40;;;;;;;;;;5055192;28;20046;-72
2022/03/12 13:08:43;;;;;;;5.60;1.42;;;;;;;;;;5056667;28;20094;-72
2022/03/12 13:11:28;;;;;;;5.97;1.70;;;;;;;;;;5073749;28;20047;-73
2022/03/12 13:13:55;;;;;;;6.93;1.73;;;;;;;;;;5073523;28;20518;-72
2022/03/12 13:16:22;;;;;;;5.72;1.73;;;;;;;;;;5074280;28;20054;-75
2022/03/12 13:18:48;;;;;;;4.30;1.50;;;;;;;;;;5073366;28;20407;-73
2022/03/12 13:21:27;;;;;;;4.82;1.55;;;;;;;;;;5073094;28;21458;-72
2022/03/12 13:23:53;;;;;;;5.25;1.30;;;;;;;;;;5074251;28;20040;-73
2022/03/12 13:26:19;;;;;;;3.35;1.48;;;;;;;;;;5073558;28;20036;-73
2022/03/12 13:28:47;;;;;;;4.80;1.40;;;;;;;;;;5058613;28;20506;-73
2022/03/12 13:31:27;;;;;;;3.90;1.33;;;;;;;;;;5073299;28;20421;-76
2022/03/12 13:33:57;;;;;;;3.00;1.15;;;;;;;;;;5073060;28;20123;-74
2022/03/12 13:36:24;;;;;;;4.65;1.40;;;;;;;;;;5073099;28;20427;-74
2022/03/12 13:38:52;;;;;;;4.82;1.42;;;;;;;;;;5055315;28;20111;-75
2022/03/12 13:41:18;;;;;;;2.80;1.50;;;;;;;;;;5055342;28;20074;-75
2022/03/12 13:43:46;;;;;;;2.95;1.50;;;;;;;;;;5073749;28;20050;-76
2022/03/12 13:46:12;;;;;;;5.18;1.60;;;;;;;;;;5066202;28;20029;-74
2022/03/12 13:48:42;;;;;;;3.58;1.60;;;;;;;;;;5055366;28;20063;-76
2022/03/12 13:51:08;;;;;;;3.28;1.58;;;;;;;;;;5048538;28;20074;-75
2022/03/12 13:53:36;;;;;;;1.75;1.02;;;;;;;;;;5073462;28;20028;-74
2022/03/12 13:56:10;;;;;;;4.65;1.70;;;;;;;;;;5073222;28;20673;-75
2022/03/12 13:58:44;;;;;;;4.57;1.20;;;;;;;;;;5066989;28;20017;-76
2022/03/12 14:01:11;;;;;;;5.18;1.42;;;;;;;;;;5054599;28;20425;-75
2022/03/12 14:03:45;;;;;;;2.72;1.20;;;;;;;;;;5073366;28;20044;-75
2022/03/12 14:06:26;;;;;;;3.40;1.52;;;;;;;;;;5072978;28;20032;-75
2022/03/12 14:08:52;;;;;;;3.15;1.40;;;;;;;;;;5039577;28;20448;-77
2022/03/12 14:11:38;;;;;;;2.60;1.15;;;;;;;;;;5054955;28;20028;-77
2022/03/12 14:14:07;;;;;;;2.65;1.25;;;;;;;;;;5054591;28;20036;-72
2022/03/12 14:16:35;;;;;;;2.30;1.20;;;;;;;;;;5054970;28;20032;-77
2022/03/12 14:19:01;;;;;;;2.78;1.20;;;;;;;;;;5072643;28;20023;-78
2022/03/12 14:21:36;;;;;;;5.03;1.58;;;;;;;;;;5072753;28;20044;-77
2022/03/12 14:24:14;;;;;;;3.05;1.17;;;;;;;;;;5054869;28;20017;-76
2022/03/12 14:26:51;;;;;;;2.85;1.15;;;;;;;;;;5045806;28;20070;-76
2022/03/12 14:29:36;;;;;;;9.20;1.15;;;;;;;;;;5056678;28;20040;-75
2022/03/12 14:32:07;;;;;;;3.78;1.17;;;;;;;;;;5072557;28;20062;-75
2022/03/12 14:34:35;;;;;;;20.10;1.40;;;;;;;;;;5066372;28;20046;-68
2022/03/12 14:37:02;;;;;;;4.18;1.42;;;;;;;;;;5056170;28;20028;-72
2022/03/12 14:39:29;;;;;;;3.40;1.38;;;;;;;;;;5072348;28;20017;-72
2022/03/12 14:41:56;;;;;;;2.20;1.05;;;;;;;;;;5071168;28;20094;-70
2022/03/12 14:44:23;;;;;;;7.03;1.00;;;;;;;;;;5071882;28;20377;-67
2022/03/12 14:46:51;;;;;;;2.55;0.90;;;;;;;;;;5072002;28;20028;-68
2022/03/12 14:49:34;;;;;;;6.05;1.20;;;;;;;;;;5071812;28;20458;-70